createdAt,value
2019-04-26T00:01:18.334Z,0.90
2019-04-26T00:03:46.276Z,0.80
2019-04-26T00:09:18.422Z,0.80
2019-04-26T00:12:02.502Z,0.75
2019-04-26T00:14:43.944Z,0.90
2019-04-26T00:17:17.920Z,1.07
2019-04-26T00:19:44.814Z,0.90
2019-04-26T00:22:12.929Z,1.07
2019-04-26T00:24:40.237Z,0.78
2019-04-26T00:27:07.105Z,0.80
2019-04-26T00:29:33.806Z,0.90
2019-04-26T00:32:00.716Z,0.98
2019-04-26T00:34:27.407Z,0.98
2019-04-26T00:36:54.135Z,1.02
2019-04-26T00:39:20.964Z,0.98
2019-04-26T00:41:47.740Z,0.95
2019-04-26T00:44:14.878Z,0.90
2019-04-26T00:46:44.121Z,0.70
2019-04-26T00:49:12.588Z,1.00
2019-04-26T00:51:40.704Z,1.00
2019-04-26T00:54:08.416Z,1.07
2019-04-26T00:56:36.168Z,1.17
2019-04-26T00:59:04.183Z,1.00
2019-04-26T01:01:34.674Z,1.12
2019-04-26T01:04:01.425Z,1.25
2019-04-26T01:06:30.712Z,1.10
2019-04-26T01:08:57.508Z,1.05
2019-04-26T01:11:24.182Z,1.30
2019-04-26T01:13:50.880Z,1.10
2019-04-26T01:16:18.348Z,0.88
2019-04-26T01:18:46.661Z,1.20
2019-04-26T01:21:22.615Z,1.12
2019-04-26T01:23:52.697Z,1.37
2019-04-26T01:26:27.460Z,1.62
2019-04-26T01:29:03.742Z,1.17
2019-04-26T01:31:34.084Z,1.05
2019-04-26T01:34:00.899Z,1.02
2019-04-26T01:36:29.537Z,1.00
2019-04-26T01:39:01.020Z,1.07
2019-04-26T01:44:45.530Z,1.40
2019-04-26T01:47:12.725Z,1.30
2019-04-26T01:49:39.517Z,1.35
2019-04-26T01:52:09.847Z,1.42
2019-04-26T01:55:01.208Z,1.30
2019-04-26T01:57:29.719Z,1.87
2019-04-26T02:00:01.490Z,1.40
2019-04-26T02:02:39.803Z,1.70
2019-04-26T02:05:12.140Z,1.42
2019-04-26T02:07:39.400Z,1.22
2019-04-26T02:10:09.283Z,1.62
2019-04-26T02:12:37.150Z,1.27
2019-04-26T02:15:04.628Z,1.32
2019-04-26T02:17:31.511Z,1.22
2019-04-26T02:19:58.301Z,1.37
2019-04-26T02:22:32.037Z,1.57
2019-04-26T02:24:59.019Z,1.42
2019-04-26T02:27:30.312Z,1.70
2019-04-26T02:29:58.483Z,1.75
2019-04-26T02:32:26.789Z,2.00
2019-04-26T02:34:55.100Z,1.98
2019-04-26T02:37:21.893Z,1.60
2019-04-26T02:39:49.305Z,1.52
2019-04-26T02:42:34.298Z,1.80
2019-04-26T02:45:36.755Z,1.60
2019-04-26T02:48:34.295Z,2.20
2019-04-26T02:51:23.185Z,1.82
2019-04-26T02:54:04.004Z,2.02
2019-04-26T02:59:25.234Z,2.55
2019-04-26T03:01:56.320Z,2.40
2019-04-26T03:04:25.744Z,2.85
2019-04-26T03:07:03.440Z,2.35
2019-04-26T03:09:46.189Z,2.85
2019-04-26T03:12:16.402Z,2.90
2019-04-26T03:15:12.131Z,2.92
2019-04-26T03:17:39.756Z,2.72
2019-04-26T03:20:12.045Z,2.95
2019-04-26T03:22:52.994Z,2.90
2019-04-26T03:25:49.055Z,3.05
2019-04-26T03:28:32.716Z,2.80
2019-04-26T03:31:20.111Z,2.90
2019-04-26T03:34:25.105Z,3.20
2019-04-26T03:37:24.697Z,3.50
2019-04-26T03:40:05.397Z,2.83
2019-04-26T03:43:17.006Z,3.60
2019-04-26T03:46:06.398Z,3.30
2019-04-26T03:48:51.962Z,3.30
2019-04-26T03:51:50.733Z,3.70
2019-04-26T03:54:21.141Z,3.20
2019-04-26T03:57:01.324Z,3.70
2019-04-26T03:59:56.524Z,4.70
2019-04-26T04:02:41.053Z,5.20
2019-04-26T04:07:59.072Z,4.53
2019-04-26T04:10:32.577Z,4.67
2019-04-26T04:13:10.256Z,6.00
2019-04-26T04:15:44.696Z,5.78
2019-04-26T04:18:19.699Z,9.80
2019-04-26T04:21:31.255Z,8.33
2019-04-26T04:24:16.751Z,8.88
2019-04-26T04:27:24.014Z,8.98
2019-04-26T04:30:31.429Z,11.75
2019-04-26T04:33:26.784Z,11.53
2019-04-26T04:35:59.527Z,14.45
2019-04-26T04:38:33.890Z,14.13
2019-04-26T04:41:16.454Z,16.25
2019-04-26T04:43:57.029Z,19.30
2019-04-26T04:47:23.542Z,17.85
2019-04-26T04:49:57.309Z,18.92
2019-04-26T04:53:00.585Z,17.92
2019-04-26T04:55:47.913Z,19.62
2019-04-26T04:58:22.605Z,20.10
2019-04-26T05:01:44.240Z,19.32
2019-04-26T05:04:23.060Z,19.00
2019-04-26T05:07:18.192Z,19.85
2019-04-26T05:10:10.963Z,20.95
2019-04-26T05:12:58.513Z,21.77
2019-04-26T05:15:52.806Z,20.97
2019-04-26T05:18:58.694Z,22.82
2019-04-26T05:21:53.591Z,23.62
2019-04-26T05:24:56.406Z,21.50
2019-04-26T05:27:52.989Z,23.65
2019-04-26T05:31:06.884Z,21.73
2019-04-26T05:34:02.419Z,21.02
2019-04-26T05:36:57.275Z,21.35
2019-04-26T05:39:57.367Z,21.70
2019-04-26T05:43:23.372Z,19.80
2019-04-26T05:46:03.551Z,20.15
2019-04-26T05:49:08.795Z,20.72
2019-04-26T05:52:24.870Z,19.77
2019-04-26T05:55:25.791Z,21.00
2019-04-26T06:01:37.435Z,20.17
2019-04-26T06:04:39.587Z,22.70
2019-04-26T06:07:22.410Z,21.20
2019-04-26T06:10:19.159Z,21.35
2019-04-26T06:13:09.402Z,20.70
2019-04-26T06:15:55.945Z,20.32
2019-04-26T06:18:51.688Z,20.55
2019-04-26T06:21:34.873Z,20.48
2019-04-26T06:24:25.163Z,21.33
2019-04-26T06:27:24.932Z,21.25
2019-04-26T06:30:07.883Z,20.65
2019-04-26T06:33:00.274Z,21.27
2019-04-26T06:35:23.242Z,22.65
2019-04-26T06:38:26.847Z,22.05
2019-04-26T06:41:21.727Z,21.75
2019-04-26T06:43:55.570Z,24.43
2019-04-26T06:47:03.983Z,26.20
2019-04-26T06:50:07.972Z,25.08
2019-04-26T06:52:45.147Z,24.85
2019-04-26T06:55:22.051Z,26.52
2019-04-26T06:58:21.617Z,29.65
2019-04-26T07:01:15.471Z,29.20
2019-04-26T07:04:08.277Z,28.90
2019-04-26T07:06:42.943Z,29.48
2019-04-26T07:09:12.554Z,30.02
2019-04-26T07:12:11.946Z,29.42
2019-04-26T07:15:27.943Z,26.57
2019-04-26T07:18:39.764Z,28.87
2019-04-26T07:21:38.259Z,29.60
2019-04-26T07:24:39.652Z,28.73
2019-04-26T07:27:40.799Z,26.93
2019-04-26T07:30:15.765Z,25.90
2019-04-26T07:36:07.655Z,22.22
2019-04-26T07:39:20.039Z,20.90
2019-04-26T07:42:25.199Z,20.20
2019-04-26T07:45:19.032Z,18.37
2019-04-26T07:48:19.364Z,19.10
2019-04-26T07:51:35.954Z,17.90
2019-04-26T07:54:31.988Z,16.35
2019-04-26T07:57:40.499Z,15.50
2019-04-26T08:00:19.636Z,18.07
2019-04-26T08:03:24.168Z,16.70
2019-04-26T08:06:26.745Z,18.75
2019-04-26T08:09:06.115Z,17.15
2019-04-26T08:11:38.172Z,17.65
2019-04-26T08:14:10.650Z,18.12
2019-04-26T08:16:57.250Z,17.42
2019-04-26T08:19:28.268Z,17.12
2019-04-26T08:22:11.599Z,17.77
2019-04-26T08:24:28.833Z,18.42
2019-04-26T08:27:23.508Z,18.40
2019-04-26T08:29:57.353Z,18.12
2019-04-26T08:32:32.186Z,16.42
2019-04-26T08:35:08.286Z,15.50
2019-04-26T08:37:47.520Z,17.00
2019-04-26T08:40:23.046Z,16.70
2019-04-26T08:45:40.443Z,13.98
2019-04-26T08:48:22.401Z,14.63
2019-04-26T08:51:16.428Z,13.62
2019-04-26T08:53:45.340Z,12.53
2019-04-26T08:56:16.697Z,13.75
2019-04-26T08:58:47.178Z,13.03
2019-04-26T09:01:37.840Z,12.88
2019-04-26T09:04:14.608Z,12.63
2019-04-26T09:07:19.886Z,12.45
2019-04-26T09:09:57.037Z,10.53
2019-04-26T09:12:23.584Z,11.55
2019-04-26T09:14:53.522Z,11.33
2019-04-26T09:17:20.584Z,10.00
2019-04-26T09:19:47.599Z,9.38
2019-04-26T09:22:33.948Z,10.23
2019-04-26T09:25:06.905Z,9.75
2019-04-26T09:27:38.705Z,9.93
2019-04-26T09:30:33.772Z,9.45
2019-04-26T09:32:58.299Z,8.98
2019-04-26T09:35:26.030Z,8.80
2019-04-26T09:37:52.809Z,8.25
2019-04-26T09:40:22.582Z,8.38
2019-04-26T09:42:56.651Z,7.58
2019-04-26T09:45:41.609Z,7.97
2019-04-26T09:48:19.270Z,7.05
2019-04-26T09:50:47.769Z,7.15
2019-04-26T09:53:15.111Z,7.42
2019-04-26T09:55:41.813Z,7.45
2019-04-26T09:58:08.818Z,7.58
2019-04-26T10:00:35.969Z,7.25
2019-04-26T10:03:05.572Z,7.62
2019-04-26T10:05:31.967Z,6.03
2019-04-26T10:07:58.756Z,6.37
2019-04-26T10:10:30.907Z,6.45
2019-04-26T10:13:23.288Z,5.70
2019-04-26T10:16:13.349Z,5.62
2019-04-26T10:18:42.573Z,4.15
2019-04-26T10:21:09.356Z,4.10
2019-04-26T10:23:36.149Z,4.42
2019-04-26T10:26:04.929Z,4.53
2019-04-26T10:28:31.608Z,4.47
2019-04-26T10:30:58.414Z,4.53
2019-04-26T10:33:25.102Z,4.60
2019-04-26T10:35:52.634Z,5.25
2019-04-26T10:38:23.747Z,5.83
2019-04-26T10:40:49.171Z,6.05
2019-04-26T10:43:15.984Z,6.00
2019-04-26T10:45:45.902Z,6.37
2019-04-26T10:48:13.971Z,6.15
2019-04-26T10:50:40.122Z,6.12
2019-04-26T10:53:16.858Z,6.12
2019-04-26T10:56:00.296Z,5.50
2019-04-26T10:58:36.288Z,6.78
2019-04-26T11:01:09.687Z,5.95
2019-04-26T11:03:39.637Z,5.33
2019-04-26T11:06:06.682Z,6.62
2019-04-26T11:08:33.391Z,6.10
2019-04-26T11:11:00.165Z,6.40
2019-04-26T11:13:27.264Z,5.55
2019-04-26T11:15:54.073Z,6.55
2019-04-26T11:18:40.490Z,6.30
2019-04-26T11:21:07.302Z,6.60
2019-04-26T11:23:34.067Z,6.67
2019-04-26T11:26:01.636Z,7.20
2019-04-26T11:28:29.620Z,7.20
2019-04-26T11:30:57.496Z,9.43
2019-04-26T11:33:24.485Z,8.13
2019-04-26T11:35:51.357Z,6.65
2019-04-26T11:38:20.169Z,6.70
2019-04-26T11:40:49.889Z,6.85
2019-04-26T11:43:15.796Z,5.00
2019-04-26T11:45:45.409Z,6.75
2019-04-26T11:48:12.554Z,6.55
2019-04-26T11:50:39.277Z,6.72
2019-04-26T11:53:09.773Z,6.75
2019-04-26T11:55:34.779Z,6.95
2019-04-26T11:58:01.570Z,7.10
2019-04-26T12:00:33.950Z,6.40
2019-04-26T12:03:00.760Z,6.90
2019-04-26T12:05:49.984Z,6.80
2019-04-26T12:08:21.442Z,6.25
2019-04-26T12:10:48.250Z,6.87
2019-04-26T12:13:15.090Z,6.90
2019-04-26T12:15:43.786Z,5.67
2019-04-26T12:18:11.129Z,7.33
2019-04-26T12:20:38.158Z,6.72
2019-04-26T12:23:04.950Z,8.10
2019-04-26T12:25:31.804Z,8.43
2019-04-26T12:28:02.059Z,8.28
2019-04-26T12:30:27.149Z,10.78
2019-04-26T12:32:53.925Z,10.72
2019-04-26T12:35:20.747Z,11.88
2019-04-26T12:37:50.639Z,12.33
2019-04-26T12:40:18.056Z,11.83
2019-04-26T12:42:47.310Z,10.93
2019-04-26T12:45:34.431Z,12.95
2019-04-26T12:48:02.789Z,10.68
2019-04-26T12:50:34.083Z,12.55
2019-04-26T12:52:57.959Z,13.98
2019-04-26T12:55:25.283Z,13.35
2019-04-26T12:57:52.069Z,11.35
2019-04-26T13:00:52.896Z,11.65
2019-04-26T13:03:19.627Z,12.73
2019-04-26T13:05:37.467Z,12.40
2019-04-26T13:08:04.306Z,14.70
2019-04-26T13:10:53.416Z,13.05
2019-04-26T13:13:27.032Z,15.32
2019-04-26T13:16:13.585Z,12.93
2019-04-26T13:18:41.158Z,14.93
2019-04-26T13:21:09.092Z,14.68
2019-04-26T13:23:35.873Z,15.85
2019-04-26T13:26:02.869Z,15.88
2019-04-26T13:28:29.687Z,14.78
2019-04-26T13:30:56.582Z,26.97
2019-04-26T13:33:27.607Z,27.15
2019-04-26T13:36:02.776Z,18.12
2019-04-26T13:38:20.708Z,19.10
2019-04-26T13:40:47.510Z,18.23
2019-04-26T13:43:14.211Z,19.65
2019-04-26T13:46:05.557Z,22.20
2019-04-26T13:48:51.889Z,18.25
2019-04-26T13:51:19.253Z,19.73
2019-04-26T13:53:46.022Z,20.12
2019-04-26T13:56:12.757Z,20.57
2019-04-26T13:58:41.647Z,21.60
2019-04-26T14:01:10.171Z,19.65
2019-04-26T14:03:36.765Z,21.68
2019-04-26T14:06:03.528Z,19.98
2019-04-26T14:08:30.329Z,20.68
2019-04-26T14:10:56.994Z,24.80
2019-04-26T14:13:24.972Z,23.62
2019-04-26T14:15:52.527Z,20.15
2019-04-26T14:18:19.327Z,21.80
2019-04-26T14:20:46.127Z,23.73
2019-04-26T14:23:38.399Z,23.95
2019-04-26T14:26:11.610Z,27.42
2019-04-26T14:28:38.551Z,25.92
2019-04-26T14:31:05.355Z,22.90
2019-04-26T14:33:32.360Z,24.60
2019-04-26T14:35:59.233Z,29.55
2019-04-26T14:38:27.961Z,31.40
2019-04-26T14:41:03.743Z,32.83
2019-04-26T14:43:39.739Z,36.08
2019-04-26T14:45:55.989Z,34.18
2019-04-26T14:48:35.284Z,32.67
2019-04-26T14:50:53.226Z,35.25
2019-04-26T14:53:20.203Z,38.78
2019-04-26T14:55:47.002Z,37.55
2019-04-26T14:58:13.809Z,34.13
2019-04-26T15:00:44.486Z,36.42
2019-04-26T15:05:58.795Z,38.25
2019-04-26T15:08:25.596Z,39.73
2019-04-26T15:10:57.635Z,39.00
2019-04-26T15:13:23.138Z,37.90
2019-04-26T15:15:49.593Z,40.38
2019-04-26T15:18:16.401Z,41.40
2019-04-26T15:20:43.189Z,42.93
2019-04-26T15:23:09.979Z,45.15
2019-04-26T15:25:36.982Z,51.10
2019-04-26T15:28:06.995Z,46.73
2019-04-26T15:30:34.252Z,49.13
2019-04-26T15:33:03.114Z,56.00
2019-04-26T15:35:34.232Z,51.42
2019-04-26T15:38:01.489Z,49.58
2019-04-26T15:41:11.813Z,50.83
2019-04-26T15:43:39.334Z,51.02
2019-04-26T15:46:13.519Z,51.50
2019-04-26T15:48:50.355Z,52.50
2019-04-26T15:51:20.135Z,52.73
2019-04-26T15:53:48.825Z,51.20
2019-04-26T15:56:16.816Z,49.58
2019-04-26T15:58:47.750Z,50.83
2019-04-26T16:01:13.414Z,50.15
2019-04-26T16:03:40.877Z,50.88
2019-04-26T16:06:08.765Z,52.50
2019-04-26T16:08:42.701Z,55.52
2019-04-26T16:11:07.336Z,55.50
2019-04-26T16:13:33.004Z,54.08
2019-04-26T16:15:59.809Z,52.17
2019-04-26T16:18:26.534Z,52.62
2019-04-26T16:20:53.452Z,54.50
2019-04-26T16:23:20.320Z,51.02
2019-04-26T16:25:47.097Z,52.08
2019-04-26T16:28:44.468Z,51.63
2019-04-26T16:31:17.939Z,54.77
2019-04-26T16:33:45.208Z,54.05
2019-04-26T16:36:11.828Z,49.00
2019-04-26T16:38:38.513Z,48.17
2019-04-26T16:41:05.613Z,51.73
2019-04-26T16:43:37.733Z,50.35
2019-04-26T16:46:02.298Z,50.70
2019-04-26T16:48:29.203Z,51.40
2019-04-26T16:50:56.013Z,54.27
2019-04-26T16:53:42.876Z,50.58
2019-04-26T16:55:53.306Z,50.60
2019-04-26T16:58:20.187Z,50.90
2019-04-26T17:00:54.179Z,52.70
2019-04-26T17:03:15.630Z,50.05
2019-04-26T17:05:48.309Z,50.83
2019-04-26T17:08:12.902Z,52.35
2019-04-26T17:10:39.928Z,48.58
2019-04-26T17:13:08.495Z,52.58
2019-04-26T17:15:35.216Z,51.02
2019-04-26T17:20:57.034Z,51.70
2019-04-26T17:23:40.311Z,49.38
2019-04-26T17:26:25.083Z,49.18
2019-04-26T17:28:53.149Z,48.10
2019-04-26T17:31:20.709Z,52.88
2019-04-26T17:33:47.415Z,50.83
2019-04-26T17:36:15.654Z,49.45
2019-04-26T17:38:42.725Z,50.80
2019-04-26T17:41:10.901Z,50.23
2019-04-26T17:43:42.282Z,50.55
2019-04-26T17:46:06.875Z,53.25
2019-04-26T17:48:33.748Z,51.28
2019-04-26T17:51:00.512Z,49.90
2019-04-26T17:53:31.157Z,53.02
2019-04-26T17:55:56.054Z,52.73
2019-04-26T17:58:30.974Z,54.75
2019-04-26T18:00:56.551Z,58.40
2019-04-26T18:03:23.325Z,56.90
2019-04-26T18:05:57.176Z,60.75
2019-04-26T18:08:36.041Z,59.42
2019-04-26T18:10:47.494Z,58.28
2019-04-26T18:13:16.238Z,62.73
2019-04-26T18:15:46.896Z,61.40
2019-04-26T18:18:29.863Z,60.23
2019-04-26T18:21:07.273Z,61.63
2019-04-26T18:23:33.978Z,63.60
2019-04-26T18:26:00.754Z,63.25
2019-04-26T18:28:27.464Z,64.37
2019-04-26T18:30:54.247Z,63.58
2019-04-26T18:33:24.141Z,62.38
2019-04-26T18:35:55.959Z,63.02
2019-04-26T18:38:18.151Z,64.90
2019-04-26T18:41:00.184Z,62.90
2019-04-26T18:43:18.780Z,64.05
2019-04-26T18:45:44.457Z,60.30
2019-04-26T18:48:13.715Z,60.83
2019-04-26T18:50:40.083Z,62.60
2019-04-26T18:53:24.797Z,59.58
2019-04-26T18:55:53.958Z,56.23
2019-04-26T18:58:20.639Z,61.42
2019-04-26T19:00:47.502Z,66.02
2019-04-26T19:03:16.058Z,66.07
2019-04-26T19:05:43.142Z,65.40
2019-04-26T19:08:10.149Z,64.87
2019-04-26T19:10:36.894Z,63.50
2019-04-26T19:13:14.219Z,68.85
2019-04-26T19:15:52.116Z,61.98
2019-04-26T19:18:33.636Z,66.65
2019-04-26T19:23:32.502Z,62.48
2019-04-26T19:25:59.578Z,61.68
2019-04-26T19:28:26.343Z,68.00
2019-04-26T19:30:53.333Z,69.77
2019-04-26T19:33:21.613Z,73.55
2019-04-26T19:35:48.639Z,72.78
2019-04-26T19:38:15.400Z,78.02
2019-04-26T19:40:46.115Z,69.60
2019-04-26T19:43:12.443Z,69.37
2019-04-26T19:46:12.771Z,72.87
2019-04-26T19:49:14.117Z,72.80
2019-04-26T19:52:02.190Z,69.87
2019-04-26T19:54:38.524Z,70.25
2019-04-26T19:57:17.758Z,69.95
2019-04-26T19:59:44.422Z,68.83
2019-04-26T20:02:12.769Z,65.05
2019-04-26T20:04:39.487Z,64.70
2019-04-26T20:07:06.181Z,66.72
2019-04-26T20:09:32.961Z,65.78
2019-04-26T20:12:02.603Z,65.65
2019-04-26T20:14:39.892Z,66.47
2019-04-26T20:16:57.974Z,70.65
2019-04-26T20:19:34.420Z,74.35
2019-04-26T20:21:53.333Z,74.22
2019-04-26T20:24:20.005Z,72.22
2019-04-26T20:26:48.676Z,72.60
2019-04-26T20:29:15.360Z,67.75
2019-04-26T20:31:55.722Z,67.50
2019-04-26T20:34:22.405Z,66.95
2019-04-26T20:36:49.109Z,70.75
2019-04-26T20:39:16.603Z,65.22
2019-04-26T20:41:44.567Z,65.70
2019-04-26T20:44:12.758Z,65.97
2019-04-26T20:46:39.737Z,67.05
2019-04-26T20:49:09.047Z,65.17
2019-04-26T20:51:34.889Z,62.27
2019-04-26T20:54:02.021Z,66.60
2019-04-26T20:56:31.708Z,67.25
2019-04-26T20:58:58.648Z,70.55
2019-04-26T21:01:25.335Z,69.35
2019-04-26T21:03:52.099Z,68.57
2019-04-26T21:06:18.890Z,70.78
2019-04-26T21:08:45.656Z,71.33
2019-04-26T21:11:13.631Z,74.03
2019-04-26T21:13:41.549Z,74.42
2019-04-26T21:16:10.856Z,76.90
2019-04-26T21:18:39.990Z,70.47
2019-04-26T21:21:10.617Z,69.62
2019-04-26T21:23:39.987Z,69.25
2019-04-26T21:26:19.197Z,73.50
2019-04-26T21:29:03.616Z,67.20
2019-04-26T21:31:36.363Z,68.47
2019-04-26T21:34:12.519Z,66.33
2019-04-26T21:36:53.273Z,66.77
2019-04-26T21:39:39.508Z,64.70
2019-04-26T21:42:06.766Z,65.60
2019-04-26T21:44:33.862Z,68.17
2019-04-26T21:47:03.372Z,69.12
2019-04-26T21:49:30.105Z,67.87
2019-04-26T21:51:56.880Z,68.33
2019-04-26T21:54:25.143Z,74.95
2019-04-26T21:56:53.719Z,71.60
2019-04-26T21:59:20.619Z,74.65
2019-04-26T22:01:48.195Z,71.20
2019-04-26T22:04:15.959Z,71.53
2019-04-26T22:06:42.626Z,69.47
2019-04-26T22:09:36.600Z,65.95
2019-04-26T22:12:01.447Z,64.75
2019-04-26T22:14:33.985Z,66.80
2019-04-26T22:17:11.018Z,63.95
2019-04-26T22:19:53.391Z,64.27
2019-04-26T22:22:28.185Z,65.97
2019-04-26T22:24:55.623Z,73.95
2019-04-26T22:27:25.321Z,66.35
2019-04-26T22:29:51.948Z,66.42
2019-04-26T22:32:19.489Z,66.07
2019-04-26T22:34:46.430Z,69.17
2019-04-26T22:37:16.046Z,67.85
2019-04-26T22:39:44.201Z,69.22
2019-04-26T22:42:10.945Z,69.75
2019-04-26T22:44:46.520Z,69.47
2019-04-26T22:47:33.849Z,70.12
2019-04-26T22:50:01.063Z,67.10
2019-04-26T22:52:27.649Z,68.02
2019-04-26T22:54:54.478Z,66.28
2019-04-26T22:57:21.042Z,71.00
2019-04-26T22:59:50.543Z,71.17
2019-04-26T23:02:18.379Z,67.05
2019-04-26T23:04:45.783Z,69.15
2019-04-26T23:07:18.375Z,73.00
2019-04-26T23:09:47.454Z,74.82
2019-04-26T23:12:29.623Z,74.67
2019-04-26T23:15:17.395Z,69.55
2019-04-26T23:18:08.250Z,69.47
2019-04-26T23:20:40.825Z,73.12
2019-04-26T23:23:08.681Z,72.82
2019-04-26T23:25:35.445Z,73.22
2019-04-26T23:28:03.617Z,79.65
2019-04-26T23:30:31.740Z,69.72
2019-04-26T23:32:59.098Z,70.55
2019-04-26T23:35:25.830Z,70.87
2019-04-26T23:37:56.665Z,72.12
2019-04-26T23:40:25.741Z,67.62
2019-04-26T23:42:51.515Z,66.35
2019-04-26T23:45:18.575Z,69.32
2019-04-26T23:47:45.355Z,66.33
2019-04-26T23:50:13.734Z,65.17
2019-04-26T23:52:40.814Z,71.90
2019-04-26T23:55:09.024Z,69.55
2019-04-26T23:57:36.414Z,66.40
